createdAt,value
2023-05-14T00:00:11.118Z,76.04
2023-05-14T00:02:40.091Z,75.68
2023-05-14T00:05:10.263Z,75.77
2023-05-14T00:07:39.167Z,75.80
2023-05-14T00:10:10.295Z,75.77
2023-05-14T00:12:39.222Z,75.80
2023-05-14T00:15:09.318Z,76.07
2023-05-14T00:17:39.192Z,75.85
2023-05-14T00:20:08.958Z,76.39
2023-05-14T00:22:37.596Z,76.26
2023-05-14T00:25:09.826Z,75.77
2023-05-14T00:27:38.944Z,75.83
2023-05-14T00:30:08.633Z,75.92
2023-05-14T00:32:37.676Z,76.04
2023-05-14T00:35:07.391Z,75.95
2023-05-14T00:37:36.765Z,76.16
2023-05-14T00:40:07.122Z,76.41
2023-05-14T00:42:37.467Z,76.15
2023-05-14T00:45:07.513Z,76.14
2023-05-14T00:47:36.618Z,76.57
2023-05-14T00:50:06.659Z,76.53
2023-05-14T00:52:35.614Z,76.38
2023-05-14T00:55:06.335Z,76.51
2023-05-14T00:57:37.742Z,76.99
2023-05-14T01:00:09.139Z,76.91
2023-05-14T01:02:38.229Z,77.25
2023-05-14T01:05:08.289Z,77.08
2023-05-14T01:07:50.972Z,76.87
2023-05-14T01:10:29.236Z,77.13
2023-05-14T01:13:05.835Z,76.94
2023-05-14T01:15:37.892Z,76.98
2023-05-14T01:18:10.147Z,77.07
2023-05-14T01:20:39.264Z,76.86
2023-05-14T01:23:11.753Z,77.43
2023-05-14T01:25:41.203Z,77.45
2023-05-14T01:28:18.166Z,77.91
2023-05-14T01:31:09.442Z,77.67
2023-05-14T01:33:39.654Z,78.59
2023-05-14T01:36:08.981Z,78.26
2023-05-14T01:38:40.093Z,78.65
2023-05-14T01:41:09.177Z,78.36
2023-05-14T01:43:38.630Z,78.77
2023-05-14T01:46:08.059Z,78.66
2023-05-14T01:48:38.180Z,78.32
2023-05-14T01:51:07.032Z,78.40
2023-05-14T01:53:35.833Z,78.65
2023-05-14T01:56:07.190Z,79.01
2023-05-14T01:58:36.220Z,78.79
2023-05-14T02:01:05.441Z,78.67
2023-05-14T02:03:35.235Z,78.58
2023-05-14T02:06:04.030Z,78.26
2023-05-14T02:08:32.876Z,78.52
2023-05-14T02:11:01.629Z,78.42
2023-05-14T02:13:31.869Z,78.37
2023-05-14T02:16:00.745Z,78.70
2023-05-14T02:18:29.794Z,78.93
2023-05-14T02:20:58.693Z,78.92
2023-05-14T02:23:37.962Z,79.04
2023-05-14T02:26:11.026Z,78.68
2023-05-14T02:28:41.323Z,78.76
2023-05-14T02:31:10.279Z,79.19
2023-05-14T02:33:39.108Z,79.13
2023-05-14T02:36:08.597Z,78.81
2023-05-14T02:38:37.488Z,78.72
2023-05-14T02:41:06.464Z,78.76
2023-05-14T02:43:35.369Z,79.09
2023-05-14T02:46:05.777Z,79.28
2023-05-14T02:48:34.639Z,79.03
2023-05-14T02:51:04.019Z,78.74
2023-05-14T02:53:33.033Z,79.48
2023-05-14T02:56:01.808Z,78.68
2023-05-14T02:58:30.705Z,78.76
2023-05-14T03:00:59.534Z,78.32
2023-05-14T03:03:30.927Z,78.61
2023-05-14T03:06:00.309Z,78.60
2023-05-14T03:08:29.086Z,78.35
2023-05-14T03:10:58.019Z,78.80
2023-05-14T03:13:27.739Z,78.23
2023-05-14T03:15:57.128Z,78.63
2023-05-14T03:18:25.973Z,78.33
2023-05-14T03:20:56.206Z,78.28
2023-05-14T03:23:25.006Z,78.99
2023-05-14T03:25:54.078Z,78.83
2023-05-14T03:28:23.230Z,79.04
2023-05-14T03:30:52.075Z,78.37
2023-05-14T03:33:21.373Z,78.89
2023-05-14T03:35:50.148Z,78.36
2023-05-14T03:38:20.300Z,78.99
2023-05-14T03:40:49.328Z,78.27
2023-05-14T03:43:18.106Z,78.68
2023-05-14T03:45:47.130Z,78.37
2023-05-14T03:48:18.933Z,78.27
2023-05-14T03:50:47.959Z,78.45
2023-05-14T03:53:16.984Z,78.34
2023-05-14T03:55:49.271Z,78.04
2023-05-14T03:58:19.026Z,78.09
2023-05-14T04:00:48.428Z,77.92
2023-05-14T04:03:17.851Z,77.88
2023-05-14T04:05:46.838Z,78.02
2023-05-14T04:08:15.688Z,77.75
2023-05-14T04:10:44.538Z,77.31
2023-05-14T04:13:14.793Z,77.02
2023-05-14T04:15:43.779Z,76.76
2023-05-14T04:18:12.633Z,76.85
2023-05-14T04:20:41.873Z,77.12
2023-05-14T04:23:10.580Z,76.73
2023-05-14T04:25:39.384Z,76.73
2023-05-14T04:28:08.050Z,76.41
2023-05-14T04:30:38.400Z,76.10
2023-05-14T04:33:07.360Z,76.12
2023-05-14T04:35:36.172Z,75.99
2023-05-14T04:38:04.976Z,75.92
2023-05-14T04:40:33.783Z,75.83
2023-05-14T04:43:02.753Z,75.97
2023-05-14T04:45:34.050Z,75.67
2023-05-14T04:48:08.127Z,75.73
2023-05-14T04:50:37.058Z,75.88
2023-05-14T04:53:05.764Z,75.66
2023-05-14T04:55:34.589Z,75.76
2023-05-14T04:58:03.645Z,75.62
2023-05-14T05:00:33.961Z,75.62
2023-05-14T05:03:03.007Z,75.75
2023-05-14T05:05:33.556Z,75.50
2023-05-14T05:08:02.489Z,75.25
2023-05-14T05:10:31.296Z,75.23
2023-05-14T05:13:00.134Z,74.92
2023-05-14T05:15:28.954Z,74.94
2023-05-14T05:17:57.816Z,74.53
2023-05-14T05:20:28.488Z,74.23
2023-05-14T05:22:59.873Z,73.96
2023-05-14T05:25:29.112Z,73.76
2023-05-14T05:27:57.886Z,73.58
2023-05-14T05:30:26.825Z,73.65
2023-05-14T05:32:57.256Z,73.64
2023-05-14T05:35:26.421Z,73.52
2023-05-14T05:37:55.190Z,73.76
2023-05-14T05:40:25.761Z,73.73
2023-05-14T05:42:54.743Z,73.51
2023-05-14T05:45:23.607Z,73.29
2023-05-14T05:47:52.523Z,73.47
2023-05-14T05:50:21.461Z,73.08
2023-05-14T05:52:50.457Z,73.04
2023-05-14T05:55:19.362Z,73.29
2023-05-14T05:57:49.533Z,73.17
2023-05-14T06:00:19.224Z,73.38
2023-05-14T06:02:48.255Z,73.27
2023-05-14T06:05:17.039Z,73.18
2023-05-14T06:07:45.819Z,73.46
2023-05-14T06:10:14.700Z,73.50
2023-05-14T06:12:43.515Z,73.55
2023-05-14T06:15:14.162Z,73.53
2023-05-14T06:17:42.985Z,73.79
2023-05-14T06:20:12.568Z,73.66
2023-05-14T06:22:41.311Z,74.17
2023-05-14T06:25:10.760Z,74.71
2023-05-14T06:27:39.560Z,74.97
2023-05-14T06:30:09.349Z,75.59
2023-05-14T06:32:39.723Z,76.01
2023-05-14T06:35:09.601Z,76.54
2023-05-14T06:37:38.412Z,76.74
2023-05-14T06:40:08.463Z,77.09
2023-05-14T06:42:37.281Z,77.39
2023-05-14T06:45:07.986Z,77.72
2023-05-14T06:47:36.894Z,77.75
2023-05-14T06:50:09.441Z,77.78
2023-05-14T06:52:40.075Z,77.57
2023-05-14T06:55:09.667Z,77.74
2023-05-14T06:57:40.464Z,77.21
2023-05-14T07:00:10.712Z,77.72
2023-05-14T07:02:39.563Z,77.56
2023-05-14T07:05:10.342Z,77.77
2023-05-14T07:07:39.246Z,78.00
2023-05-14T07:10:09.098Z,78.11
2023-05-14T07:12:38.032Z,78.10
2023-05-14T07:15:08.009Z,78.12
2023-05-14T07:17:36.826Z,77.76
2023-05-14T07:20:06.017Z,77.69
2023-05-14T07:22:36.515Z,77.66
2023-05-14T07:25:05.394Z,77.74
2023-05-14T07:27:34.211Z,77.69
2023-05-14T07:30:02.857Z,77.64
2023-05-14T07:32:31.617Z,77.68
2023-05-14T07:35:00.353Z,77.90
2023-05-14T07:37:29.326Z,78.02
2023-05-14T07:39:59.362Z,78.52
2023-05-14T07:42:35.329Z,78.48
2023-05-14T07:45:05.621Z,78.43
2023-05-14T07:47:35.361Z,78.25
2023-05-14T07:50:04.579Z,78.14
2023-05-14T07:52:34.713Z,78.02
2023-05-14T07:55:06.322Z,77.76
2023-05-14T07:57:35.155Z,78.03
2023-05-14T08:00:04.126Z,78.38
2023-05-14T08:02:41.383Z,78.48
2023-05-14T08:05:11.194Z,78.50
2023-05-14T08:07:39.681Z,78.59
2023-05-14T08:10:11.041Z,78.63
2023-05-14T08:12:40.172Z,78.81
2023-05-14T08:15:10.013Z,78.55
2023-05-14T08:17:38.859Z,78.53
2023-05-14T08:20:10.265Z,78.64
2023-05-14T08:22:39.192Z,78.28
2023-05-14T08:25:09.883Z,78.25
2023-05-14T08:27:38.768Z,77.86
2023-05-14T08:30:08.605Z,77.86
2023-05-14T08:32:39.764Z,77.45
2023-05-14T08:35:09.013Z,77.20
2023-05-14T08:37:37.796Z,76.90
2023-05-14T08:40:08.814Z,76.35
2023-05-14T08:42:42.041Z,76.07
2023-05-14T08:45:15.496Z,75.62
2023-05-14T08:47:46.858Z,75.07
2023-05-14T08:50:16.773Z,74.72
2023-05-14T08:52:45.751Z,74.30
2023-05-14T08:55:15.537Z,74.18
2023-05-14T08:57:45.451Z,73.70
2023-05-14T09:00:15.796Z,73.45
2023-05-14T09:02:46.495Z,73.56
2023-05-14T09:05:16.672Z,73.72
2023-05-14T09:07:45.912Z,74.44
2023-05-14T09:10:15.788Z,74.72
2023-05-14T09:12:46.257Z,74.95
2023-05-14T09:15:15.073Z,75.24
2023-05-14T09:17:44.858Z,74.83
2023-05-14T09:20:14.649Z,74.36
2023-05-14T09:22:43.395Z,74.24
2023-05-14T09:25:13.411Z,72.68
2023-05-14T09:27:42.388Z,71.82
2023-05-14T09:30:15.004Z,71.31
2023-05-14T09:32:46.295Z,71.31
2023-05-14T09:35:18.420Z,71.25
2023-05-14T09:37:49.867Z,70.83
2023-05-14T09:40:23.093Z,70.65
2023-05-14T09:42:52.511Z,70.58
2023-05-14T09:45:22.650Z,70.75
2023-05-14T09:47:51.699Z,70.49
2023-05-14T09:50:20.653Z,70.48
2023-05-14T09:52:49.530Z,70.07
2023-05-14T09:55:18.509Z,69.63
2023-05-14T09:57:47.383Z,69.77
2023-05-14T10:00:17.765Z,69.63
2023-05-14T10:02:49.728Z,70.26
2023-05-14T10:05:19.601Z,70.17
2023-05-14T10:07:51.159Z,70.28
2023-05-14T10:10:23.026Z,70.59
2023-05-14T10:12:54.924Z,70.49
2023-05-14T10:15:28.418Z,70.73
2023-05-14T10:18:02.492Z,71.33
2023-05-14T10:20:32.982Z,71.24
2023-05-14T10:23:02.747Z,70.86
2023-05-14T10:25:31.458Z,71.28
2023-05-14T10:28:00.375Z,70.96
2023-05-14T10:30:28.983Z,71.23
2023-05-14T10:33:12.797Z,71.42
2023-05-14T10:35:53.173Z,71.41
2023-05-14T10:38:27.553Z,71.83
2023-05-14T10:40:59.344Z,71.55
2023-05-14T10:43:31.161Z,71.58
2023-05-14T10:46:03.136Z,72.32
2023-05-14T10:48:34.254Z,73.02
2023-05-14T10:51:03.498Z,72.41
2023-05-14T10:53:37.389Z,73.17
2023-05-14T10:56:08.652Z,72.70
2023-05-14T10:58:38.481Z,72.82
2023-05-14T11:01:09.082Z,72.60
2023-05-14T11:03:45.288Z,73.07
2023-05-14T11:06:15.916Z,72.84
2023-05-14T11:08:46.735Z,72.66
2023-05-14T11:11:16.111Z,73.16
2023-05-14T11:13:46.441Z,73.15
2023-05-14T11:16:23.504Z,73.08
2023-05-14T11:19:03.636Z,73.48
2023-05-14T11:21:33.091Z,73.67
2023-05-14T11:24:03.928Z,73.62
2023-05-14T11:26:34.515Z,73.76
2023-05-14T11:29:03.518Z,74.20
2023-05-14T11:31:32.305Z,73.91
2023-05-14T11:34:04.095Z,73.71
2023-05-14T11:36:33.583Z,74.10
2023-05-14T11:39:02.304Z,73.45
2023-05-14T11:41:31.547Z,73.30
2023-05-14T11:44:00.515Z,73.46
2023-05-14T11:46:31.220Z,73.77
2023-05-14T11:49:00.130Z,74.53
2023-05-14T11:51:30.662Z,74.61
2023-05-14T11:54:00.230Z,74.96
2023-05-14T11:56:29.022Z,74.78
2023-05-14T11:58:59.084Z,75.02
2023-05-14T12:01:28.885Z,75.80
2023-05-14T12:03:57.413Z,75.98
2023-05-14T12:06:33.751Z,76.42
2023-05-14T12:09:03.557Z,77.26
2023-05-14T12:11:33.118Z,76.93
2023-05-14T12:14:02.914Z,77.16
2023-05-14T12:16:33.823Z,77.29
2023-05-14T12:19:03.906Z,77.35
2023-05-14T12:21:36.786Z,77.43
2023-05-14T12:24:06.297Z,77.40
2023-05-14T12:26:35.766Z,77.80
2023-05-14T12:29:07.195Z,78.11
2023-05-14T12:31:36.752Z,78.46
2023-05-14T12:34:06.024Z,78.21
2023-05-14T12:36:36.375Z,78.50
2023-05-14T12:39:06.237Z,78.22
2023-05-14T12:41:35.083Z,78.40
2023-05-14T12:44:04.642Z,78.58
2023-05-14T12:46:35.888Z,78.51
2023-05-14T12:49:04.773Z,78.82
2023-05-14T12:51:33.483Z,79.67
2023-05-14T12:54:03.625Z,79.65
2023-05-14T12:56:32.467Z,80.00
2023-05-14T12:59:01.135Z,80.65
2023-05-14T13:01:29.911Z,80.67
2023-05-14T13:04:00.053Z,81.14
2023-05-14T13:06:29.291Z,81.32
2023-05-14T13:09:00.806Z,81.62
2023-05-14T13:11:34.650Z,81.42
2023-05-14T13:14:03.961Z,81.90
2023-05-14T13:16:32.906Z,81.76
2023-05-14T13:19:04.971Z,82.15
2023-05-14T13:21:34.408Z,82.06
2023-05-14T13:24:03.144Z,82.28
2023-05-14T13:26:33.346Z,82.55
2023-05-14T13:29:02.099Z,82.46
2023-05-14T13:31:30.741Z,82.66
2023-05-14T13:33:59.638Z,82.67
2023-05-14T13:36:28.284Z,83.26
2023-05-14T13:38:57.044Z,83.44
2023-05-14T13:41:25.814Z,83.08
2023-05-14T13:43:55.975Z,83.28
2023-05-14T13:46:24.720Z,83.65
2023-05-14T13:48:53.841Z,83.46
2023-05-14T13:51:23.532Z,83.96
2023-05-14T13:53:51.944Z,83.89
2023-05-14T13:56:21.583Z,83.96
2023-05-14T13:58:50.444Z,84.04
2023-05-14T14:01:20.557Z,84.27
2023-05-14T14:03:49.375Z,84.10
2023-05-14T14:06:18.058Z,84.76
2023-05-14T14:08:46.820Z,85.09
2023-05-14T14:11:15.576Z,84.79
2023-05-14T14:13:46.554Z,84.87
2023-05-14T14:16:16.453Z,85.06
2023-05-14T14:18:46.662Z,85.54
2023-05-14T14:21:18.357Z,85.28
2023-05-14T14:23:47.651Z,86.02
2023-05-14T14:26:16.344Z,86.00
2023-05-14T14:28:44.985Z,85.88
2023-05-14T14:31:14.216Z,86.24
2023-05-14T14:33:43.127Z,86.37
2023-05-14T14:36:13.336Z,86.46
2023-05-14T14:38:42.132Z,86.38
2023-05-14T14:41:11.182Z,86.39
2023-05-14T14:43:41.511Z,86.98
2023-05-14T14:46:11.773Z,86.84
2023-05-14T14:48:41.467Z,87.40
2023-05-14T14:51:10.252Z,87.36
2023-05-14T14:53:40.619Z,87.40
2023-05-14T14:56:09.526Z,87.51
2023-05-14T14:58:38.551Z,87.69
2023-05-14T15:01:07.894Z,87.95
2023-05-14T15:03:36.765Z,88.22
2023-05-14T15:06:06.180Z,88.29
2023-05-14T15:08:35.626Z,88.62
2023-05-14T15:11:06.422Z,88.33
2023-05-14T15:13:35.258Z,88.44
2023-05-14T15:16:04.036Z,88.52
2023-05-14T15:18:32.703Z,88.96
2023-05-14T15:21:01.565Z,88.55
2023-05-14T15:23:30.589Z,88.46
2023-05-14T15:25:59.425Z,88.82
2023-05-14T15:28:29.688Z,88.60
2023-05-14T15:30:58.717Z,88.63
2023-05-14T15:33:27.437Z,88.91
2023-05-14T15:35:56.089Z,88.75
2023-05-14T15:38:24.820Z,88.58
2023-05-14T15:40:53.567Z,89.08
2023-05-14T15:43:22.357Z,89.07
2023-05-14T15:45:52.680Z,88.73
2023-05-14T15:48:22.169Z,88.85
2023-05-14T15:50:51.988Z,89.21
2023-05-14T15:53:20.972Z,89.49
2023-05-14T15:55:49.996Z,89.13
2023-05-14T15:58:18.761Z,89.46
2023-05-14T16:00:47.424Z,89.16
2023-05-14T16:03:19.374Z,89.21
2023-05-14T16:05:48.755Z,89.46
2023-05-14T16:08:17.447Z,89.46
2023-05-14T16:10:46.166Z,89.09
2023-05-14T16:13:14.989Z,89.26
2023-05-14T16:15:43.761Z,89.18
2023-05-14T16:18:12.708Z,88.96
2023-05-14T16:20:43.215Z,88.86
2023-05-14T16:23:12.042Z,88.75
2023-05-14T16:25:40.903Z,88.92
2023-05-14T16:28:09.626Z,88.49
2023-05-14T16:30:38.491Z,88.60
2023-05-14T16:33:07.530Z,88.74
2023-05-14T16:35:36.289Z,88.57
2023-05-14T16:38:06.562Z,88.61
2023-05-14T16:40:35.326Z,88.42
2023-05-14T16:43:04.573Z,88.59
2023-05-14T16:45:35.046Z,88.36
2023-05-14T16:48:03.979Z,88.21
2023-05-14T16:50:32.872Z,88.36
2023-05-14T16:53:01.813Z,88.75
2023-05-14T16:55:31.962Z,88.33
2023-05-14T16:58:00.777Z,88.54
2023-05-14T17:00:29.592Z,88.82
2023-05-14T17:02:58.868Z,88.55
2023-05-14T17:05:27.744Z,88.74
2023-05-14T17:07:56.996Z,88.63
2023-05-14T17:10:26.570Z,88.72
2023-05-14T17:12:56.847Z,89.00
2023-05-14T17:15:25.733Z,89.00
2023-05-14T17:17:54.677Z,88.84
2023-05-14T17:20:23.848Z,88.77
2023-05-14T17:22:52.779Z,88.64
2023-05-14T17:25:24.242Z,88.89
2023-05-14T17:27:54.196Z,88.91
2023-05-14T17:30:24.738Z,88.79
2023-05-14T17:32:53.718Z,89.26
2023-05-14T17:35:22.864Z,88.86
2023-05-14T17:37:52.737Z,89.42
2023-05-14T17:40:21.643Z,89.43
2023-05-14T17:42:50.332Z,89.12
2023-05-14T17:45:20.933Z,89.39
2023-05-14T17:47:52.367Z,89.30
2023-05-14T17:50:21.318Z,89.44
2023-05-14T17:52:50.052Z,89.52
2023-05-14T17:55:19.550Z,89.50
2023-05-14T17:57:48.310Z,89.51
2023-05-14T18:00:18.071Z,89.62
2023-05-14T18:02:46.947Z,89.69
2023-05-14T18:05:19.928Z,89.62
2023-05-14T18:07:49.613Z,89.71
2023-05-14T18:10:18.357Z,89.86
2023-05-14T18:12:47.194Z,90.03
2023-05-14T18:15:16.093Z,89.76
2023-05-14T18:17:45.040Z,89.80
2023-05-14T18:20:14.008Z,89.94
2023-05-14T18:22:44.324Z,89.86
2023-05-14T18:25:13.124Z,89.92
2023-05-14T18:27:45.074Z,90.01
2023-05-14T18:30:15.704Z,90.14
2023-05-14T18:32:45.790Z,89.87
2023-05-14T18:35:14.984Z,90.25
2023-05-14T18:37:45.187Z,90.15
2023-05-14T18:40:16.353Z,90.04
2023-05-14T18:42:49.046Z,90.26
2023-05-14T18:45:18.622Z,90.22
2023-05-14T18:47:48.083Z,90.36
2023-05-14T18:50:17.246Z,90.46
2023-05-14T18:52:47.405Z,90.16
2023-05-14T18:55:16.223Z,90.28
2023-05-14T18:57:45.149Z,90.28
2023-05-14T19:00:15.210Z,90.45
2023-05-14T19:02:44.154Z,90.38
2023-05-14T19:05:12.953Z,90.29
2023-05-14T19:07:43.308Z,90.48
2023-05-14T19:10:13.713Z,90.59
2023-05-14T19:12:42.673Z,90.68
2023-05-14T19:15:12.168Z,90.47
2023-05-14T19:17:42.382Z,90.95
2023-05-14T19:20:12.582Z,90.68
2023-05-14T19:22:41.434Z,90.42
2023-05-14T19:25:11.426Z,90.78
2023-05-14T19:27:41.789Z,90.52
2023-05-14T19:30:11.399Z,90.87
2023-05-14T19:32:40.077Z,90.83
2023-05-14T19:35:09.450Z,91.04
2023-05-14T19:37:38.344Z,91.16
2023-05-14T19:40:08.538Z,91.22
2023-05-14T19:42:37.260Z,91.21
2023-05-14T19:45:09.285Z,91.51
2023-05-14T19:47:38.214Z,91.61
2023-05-14T19:50:08.851Z,91.19
2023-05-14T19:52:37.682Z,91.63
2023-05-14T19:55:07.212Z,91.60
2023-05-14T19:57:35.694Z,91.49
2023-05-14T20:00:05.169Z,91.53
2023-05-14T20:02:42.323Z,91.46
2023-05-14T20:05:11.708Z,91.34
2023-05-14T20:07:40.667Z,91.70
2023-05-14T20:10:10.641Z,91.62
2023-05-14T20:12:39.478Z,91.50
2023-05-14T20:15:09.261Z,91.25
2023-05-14T20:17:40.738Z,91.48
2023-05-14T20:20:10.482Z,91.45
2023-05-14T20:22:40.148Z,91.67
2023-05-14T20:25:09.171Z,91.69
2023-05-14T20:27:37.921Z,91.62
2023-05-14T20:30:08.228Z,91.37
2023-05-14T20:32:37.280Z,91.75
2023-05-14T20:35:08.833Z,91.63
2023-05-14T20:37:38.067Z,91.78
2023-05-14T20:40:10.553Z,91.91
2023-05-14T20:42:39.371Z,91.89
2023-05-14T20:45:08.947Z,91.85
2023-05-14T20:47:37.844Z,91.77
2023-05-14T20:50:09.300Z,91.83
2023-05-14T20:52:38.196Z,91.87
2023-05-14T20:55:08.738Z,91.54
2023-05-14T20:57:37.505Z,91.59
2023-05-14T21:00:10.326Z,91.53
2023-05-14T21:02:39.210Z,91.78
2023-05-14T21:05:10.038Z,91.41
2023-05-14T21:07:39.550Z,91.64
2023-05-14T21:10:09.933Z,91.52
2023-05-14T21:12:38.875Z,91.55
2023-05-14T21:15:08.734Z,91.74
2023-05-14T21:17:37.568Z,91.74
2023-05-14T21:20:07.079Z,91.75
2023-05-14T21:22:37.408Z,92.09
2023-05-14T21:25:07.462Z,92.05
2023-05-14T21:27:36.575Z,92.35
2023-05-14T21:30:05.964Z,92.29
2023-05-14T21:32:34.712Z,92.25
2023-05-14T21:35:03.532Z,92.22
2023-05-14T21:37:32.961Z,92.30
2023-05-14T21:40:03.217Z,92.62
2023-05-14T21:42:32.785Z,92.37
2023-05-14T21:45:01.611Z,92.61
2023-05-14T21:47:31.134Z,92.62
2023-05-14T21:50:00.481Z,92.69
2023-05-14T21:52:29.215Z,92.63
2023-05-14T21:54:58.116Z,92.82
2023-05-14T21:57:28.673Z,92.91
2023-05-14T21:59:58.482Z,93.00
2023-05-14T22:02:27.256Z,93.30
2023-05-14T22:04:56.238Z,93.22
2023-05-14T22:07:24.927Z,93.22
2023-05-14T22:09:53.695Z,93.07
2023-05-14T22:12:22.408Z,93.28
2023-05-14T22:14:52.724Z,92.94
2023-05-14T22:17:22.047Z,93.04
2023-05-14T22:19:50.812Z,93.03
2023-05-14T22:22:19.669Z,93.07
2023-05-14T22:24:48.448Z,93.18
2023-05-14T22:27:17.289Z,93.40
2023-05-14T22:29:46.192Z,93.52
2023-05-14T22:32:16.428Z,93.66
2023-05-14T22:34:45.270Z,93.73
2023-05-14T22:37:13.988Z,93.67
2023-05-14T22:39:43.072Z,93.57
2023-05-14T22:42:11.819Z,93.74
2023-05-14T22:44:40.688Z,94.13
2023-05-14T22:47:09.462Z,94.16
2023-05-14T22:49:40.164Z,94.30
2023-05-14T22:52:09.051Z,94.36
2023-05-14T22:54:37.831Z,94.25
2023-05-14T22:57:07.404Z,94.32
2023-05-14T22:59:36.279Z,94.17
2023-05-14T23:02:05.270Z,94.27
2023-05-14T23:04:34.141Z,94.30
2023-05-14T23:07:04.484Z,94.52
2023-05-14T23:09:33.834Z,94.43
2023-05-14T23:12:02.620Z,94.58
2023-05-14T23:14:31.501Z,94.50
2023-05-14T23:17:00.188Z,94.61
2023-05-14T23:19:29.134Z,94.65
2023-05-14T23:21:58.624Z,94.89
2023-05-14T23:24:28.828Z,94.67
2023-05-14T23:26:57.593Z,94.89
2023-05-14T23:29:26.408Z,94.82
2023-05-14T23:31:55.307Z,94.89
2023-05-14T23:34:24.090Z,95.04
2023-05-14T23:36:53.329Z,94.95
2023-05-14T23:39:23.095Z,94.95
2023-05-14T23:41:53.856Z,94.84
2023-05-14T23:44:22.811Z,95.01
2023-05-14T23:46:51.734Z,94.86
2023-05-14T23:49:20.559Z,94.72
2023-05-14T23:51:49.318Z,94.92
2023-05-14T23:54:18.115Z,95.04
2023-05-14T23:56:47.153Z,94.79
2023-05-14T23:59:17.541Z,95.05
